sensor_id;sensor_type;location;lat;lon;timestamp;P1;durP1;ratioP1;P2;durP2;ratioP2
70505;SDS011;58032;49.820;6.274;2022-09-29T00:01:53;4.18;;;1.13;;
70505;SDS011;58032;49.820;6.274;2022-09-29T00:04:20;4.40;;;1.33;;
70505;SDS011;58032;49.820;6.274;2022-09-29T00:06:46;3.73;;;1.07;;
70505;SDS011;58032;49.820;6.274;2022-09-29T00:09:13;6.93;;;1.17;;
70505;SDS011;58032;49.820;6.274;2022-09-29T00:11:40;4.85;;;1.70;;
70505;SDS011;58032;49.820;6.274;2022-09-29T00:14:07;3.80;;;1.40;;
70505;SDS011;58032;49.820;6.274;2022-09-29T00:16:34;3.97;;;1.27;;
70505;SDS011;58032;49.820;6.274;2022-09-29T00:19:00;3.97;;;1.33;;
70505;SDS011;58032;49.820;6.274;2022-09-29T00:21:27;3.17;;;1.00;;
70505;SDS011;58032;49.820;6.274;2022-09-29T00:23:54;3.45;;;1.00;;
70505;SDS011;58032;49.820;6.274;2022-09-29T00:26:21;3.85;;;1.10;;
70505;SDS011;58032;49.820;6.274;2022-09-29T00:28:50;3.42;;;1.10;;
70505;SDS011;58032;49.820;6.274;2022-09-29T00:31:23;3.47;;;1.23;;
70505;SDS011;58032;49.820;6.274;2022-09-29T00:33:50;6.05;;;1.48;;
70505;SDS011;58032;49.820;6.274;2022-09-29T00:36:17;3.72;;;1.17;;
70505;SDS011;58032;49.820;6.274;2022-09-29T00:38:45;4.28;;;1.85;;
70505;SDS011;58032;49.820;6.274;2022-09-29T00:41:13;4.53;;;1.80;;
70505;SDS011;58032;49.820;6.274;2022-09-29T00:46:13;6.75;;;1.20;;
70505;SDS011;58032;49.820;6.274;2022-09-29T00:48:41;4.40;;;1.75;;
70505;SDS011;58032;49.820;6.274;2022-09-29T00:51:09;3.75;;;1.33;;
70505;SDS011;58032;49.820;6.274;2022-09-29T00:53:36;4.25;;;1.10;;
70505;SDS011;58032;49.820;6.274;2022-09-29T00:56:04;3.43;;;1.00;;
70505;SDS011;58032;49.820;6.274;2022-09-29T00:58:42;3.45;;;1.33;;
70505;SDS011;58032;49.820;6.274;2022-09-29T01:01:11;3.85;;;1.60;;
70505;SDS011;58032;49.820;6.274;2022-09-29T01:03:39;7.22;;;1.73;;
70505;SDS011;58032;49.820;6.274;2022-09-29T01:06:09;5.22;;;1.65;;
70505;SDS011;58032;49.820;6.274;2022-09-29T01:08:40;3.57;;;1.40;;
70505;SDS011;58032;49.820;6.274;2022-09-29T01:11:09;4.20;;;1.80;;
70505;SDS011;58032;49.820;6.274;2022-09-29T01:13:36;4.28;;;1.77;;
70505;SDS011;58032;49.820;6.274;2022-09-29T01:16:03;5.80;;;1.65;;
70505;SDS011;58032;49.820;6.274;2022-09-29T01:18:30;6.22;;;1.55;;
70505;SDS011;58032;49.820;6.274;2022-09-29T01:21:17;4.80;;;1.80;;
70505;SDS011;58032;49.820;6.274;2022-09-29T01:34:15;5.43;;;1.60;;
70505;SDS011;58032;49.820;6.274;2022-09-29T01:39:33;4.43;;;1.85;;
70505;SDS011;58032;49.820;6.274;2022-09-29T01:42:06;8.07;;;1.98;;
70505;SDS011;58032;49.820;6.274;2022-09-29T01:44:45;5.10;;;1.90;;
70505;SDS011;58032;49.820;6.274;2022-09-29T01:47:35;5.40;;;1.83;;
70505;SDS011;58032;49.820;6.274;2022-09-29T01:50:08;4.47;;;2.08;;
70505;SDS011;58032;49.820;6.274;2022-09-29T01:52:39;6.05;;;2.10;;
70505;SDS011;58032;49.820;6.274;2022-09-29T01:55:09;13.55;;;2.67;;
70505;SDS011;58032;49.820;6.274;2022-09-29T02:00:13;6.27;;;1.87;;
70505;SDS011;58032;49.820;6.274;2022-09-29T02:02:45;3.60;;;1.58;;
70505;SDS011;58032;49.820;6.274;2022-09-29T02:05:48;6.13;;;1.88;;
70505;SDS011;58032;49.820;6.274;2022-09-29T02:08:18;6.47;;;1.85;;
70505;SDS011;58032;49.820;6.274;2022-09-29T02:10:49;5.03;;;1.67;;
70505;SDS011;58032;49.820;6.274;2022-09-29T02:13:17;9.20;;;2.27;;
70505;SDS011;58032;49.820;6.274;2022-09-29T02:15:45;6.78;;;2.20;;
70505;SDS011;58032;49.820;6.274;2022-09-29T02:18:15;5.68;;;2.28;;
70505;SDS011;58032;49.820;6.274;2022-09-29T02:20:45;7.75;;;2.78;;
70505;SDS011;58032;49.820;6.274;2022-09-29T02:23:12;8.27;;;2.60;;
70505;SDS011;58032;49.820;6.274;2022-09-29T02:25:39;5.30;;;2.60;;
70505;SDS011;58032;49.820;6.274;2022-09-29T02:28:06;7.03;;;1.83;;
70505;SDS011;58032;49.820;6.274;2022-09-29T02:30:33;4.88;;;2.08;;
70505;SDS011;58032;49.820;6.274;2022-09-29T02:33:01;39.03;;;3.10;;
70505;SDS011;58032;49.820;6.274;2022-09-29T02:35:28;15.20;;;2.22;;
70505;SDS011;58032;49.820;6.274;2022-09-29T02:40:40;119.07;;;4.18;;
70505;SDS011;58032;49.820;6.274;2022-09-29T02:48:35;84.68;;;3.28;;
70505;SDS011;58032;49.820;6.274;2022-09-29T02:51:24;131.17;;;3.80;;
70505;SDS011;58032;49.820;6.274;2022-09-29T02:54:31;139.98;;;4.85;;
70505;SDS011;58032;49.820;6.274;2022-09-29T02:59:35;114.57;;;4.10;;
70505;SDS011;58032;49.820;6.274;2022-09-29T03:02:05;16.02;;;2.15;;
70505;SDS011;58032;49.820;6.274;2022-09-29T03:04:32;5.77;;;1.80;;
70505;SDS011;58032;49.820;6.274;2022-09-29T03:06:58;90.53;;;4.50;;
70505;SDS011;58032;49.820;6.274;2022-09-29T03:09:25;28.95;;;2.55;;
70505;SDS011;58032;49.820;6.274;2022-09-29T03:11:52;27.95;;;2.20;;
70505;SDS011;58032;49.820;6.274;2022-09-29T03:14:19;96.93;;;6.50;;
70505;SDS011;58032;49.820;6.274;2022-09-29T03:16:46;63.00;;;2.20;;
70505;SDS011;58032;49.820;6.274;2022-09-29T03:19:13;33.25;;;2.35;;
70505;SDS011;58032;49.820;6.274;2022-09-29T03:21:44;19.00;;;1.70;;
70505;SDS011;58032;49.820;6.274;2022-09-29T03:24:11;77.50;;;3.63;;
70505;SDS011;58032;49.820;6.274;2022-09-29T03:26:38;36.05;;;2.40;;
70505;SDS011;58032;49.820;6.274;2022-09-29T03:29:04;96.13;;;3.60;;
70505;SDS011;58032;49.820;6.274;2022-09-29T03:31:32;52.55;;;3.95;;
70505;SDS011;58032;49.820;6.274;2022-09-29T03:33:58;28.48;;;1.80;;
70505;SDS011;58032;49.820;6.274;2022-09-29T03:36:25;15.68;;;2.15;;
70505;SDS011;58032;49.820;6.274;2022-09-29T03:38:52;14.13;;;1.83;;
70505;SDS011;58032;49.820;6.274;2022-09-29T03:41:19;11.17;;;1.93;;
70505;SDS011;58032;49.820;6.274;2022-09-29T03:43:46;17.30;;;1.40;;
70505;SDS011;58032;49.820;6.274;2022-09-29T03:46:13;9.52;;;2.50;;
70505;SDS011;58032;49.820;6.274;2022-09-29T03:48:40;4.10;;;1.50;;
70505;SDS011;58032;49.820;6.274;2022-09-29T03:51:08;15.52;;;1.67;;
70505;SDS011;58032;49.820;6.274;2022-09-29T03:53:35;6.33;;;1.43;;
70505;SDS011;58032;49.820;6.274;2022-09-29T03:56:02;9.38;;;1.67;;
70505;SDS011;58032;49.820;6.274;2022-09-29T03:58:29;3.03;;;1.15;;
70505;SDS011;58032;49.820;6.274;2022-09-29T04:00:56;5.93;;;2.22;;
70505;SDS011;58032;49.820;6.274;2022-09-29T04:03:23;4.93;;;2.05;;
70505;SDS011;58032;49.820;6.274;2022-09-29T04:05:50;6.60;;;2.17;;
70505;SDS011;58032;49.820;6.274;2022-09-29T04:08:17;4.80;;;1.75;;
70505;SDS011;58032;49.820;6.274;2022-09-29T04:10:46;6.35;;;2.00;;
70505;SDS011;58032;49.820;6.274;2022-09-29T04:13:13;7.20;;;2.28;;
70505;SDS011;58032;49.820;6.274;2022-09-29T04:15:43;5.45;;;1.75;;
70505;SDS011;58032;49.820;6.274;2022-09-29T04:18:10;7.83;;;2.20;;
70505;SDS011;58032;49.820;6.274;2022-09-29T04:20:36;7.53;;;1.92;;
70505;SDS011;58032;49.820;6.274;2022-09-29T04:23:03;4.25;;;1.65;;
70505;SDS011;58032;49.820;6.274;2022-09-29T04:25:30;8.88;;;1.98;;
70505;SDS011;58032;49.820;6.274;2022-09-29T04:27:57;6.60;;;2.17;;
70505;SDS011;58032;49.820;6.274;2022-09-29T04:30:24;4.60;;;1.70;;
70505;SDS011;58032;49.820;6.274;2022-09-29T04:32:50;4.53;;;1.42;;
70505;SDS011;58032;49.820;6.274;2022-09-29T04:35:17;3.58;;;1.38;;
70505;SDS011;58032;49.820;6.274;2022-09-29T04:37:44;3.22;;;1.40;;
70505;SDS011;58032;49.820;6.274;2022-09-29T04:40:10;4.80;;;1.30;;
70505;SDS011;58032;49.820;6.274;2022-09-29T04:42:37;4.20;;;1.90;;
70505;SDS011;58032;49.820;6.274;2022-09-29T04:45:04;3.83;;;1.33;;
70505;SDS011;58032;49.820;6.274;2022-09-29T04:47:31;3.88;;;1.52;;
70505;SDS011;58032;49.820;6.274;2022-09-29T04:49:58;3.58;;;1.60;;
70505;SDS011;58032;49.820;6.274;2022-09-29T04:52:25;4.22;;;1.55;;
70505;SDS011;58032;49.820;6.274;2022-09-29T04:54:51;4.57;;;1.60;;
70505;SDS011;58032;49.820;6.274;2022-09-29T04:57:18;4.50;;;1.77;;
70505;SDS011;58032;49.820;6.274;2022-09-29T04:59:45;5.45;;;1.58;;
70505;SDS011;58032;49.820;6.274;2022-09-29T05:02:12;9.88;;;2.08;;
70505;SDS011;58032;49.820;6.274;2022-09-29T05:04:39;37.53;;;2.58;;
70505;SDS011;58032;49.820;6.274;2022-09-29T05:07:05;62.70;;;3.00;;
70505;SDS011;58032;49.820;6.274;2022-09-29T05:09:32;60.05;;;2.80;;
70505;SDS011;58032;49.820;6.274;2022-09-29T05:11:59;83.40;;;3.50;;
70505;SDS011;58032;49.820;6.274;2022-09-29T05:14:26;120.15;;;4.32;;
70505;SDS011;58032;49.820;6.274;2022-09-29T05:16:56;12.50;;;1.80;;
70505;SDS011;58032;49.820;6.274;2022-09-29T05:19:24;26.60;;;2.33;;
70505;SDS011;58032;49.820;6.274;2022-09-29T05:21:50;12.77;;;2.22;;
70505;SDS011;58032;49.820;6.274;2022-09-29T05:24:17;16.80;;;2.78;;
70505;SDS011;58032;49.820;6.274;2022-09-29T05:26:44;10.30;;;2.50;;
70505;SDS011;58032;49.820;6.274;2022-09-29T05:29:11;9.45;;;2.63;;
70505;SDS011;58032;49.820;6.274;2022-09-29T05:31:37;8.00;;;2.83;;
70505;SDS011;58032;49.820;6.274;2022-09-29T05:34:04;12.15;;;2.38;;
70505;SDS011;58032;49.820;6.274;2022-09-29T05:36:31;8.85;;;2.53;;
70505;SDS011;58032;49.820;6.274;2022-09-29T05:38:58;24.80;;;2.65;;
70505;SDS011;58032;49.820;6.274;2022-09-29T05:41:25;58.50;;;2.92;;
70505;SDS011;58032;49.820;6.274;2022-09-29T05:43:52;22.60;;;2.17;;
70505;SDS011;58032;49.820;6.274;2022-09-29T05:46:20;6.70;;;2.67;;
70505;SDS011;58032;49.820;6.274;2022-09-29T05:48:47;20.77;;;3.60;;
70505;SDS011;58032;49.820;6.274;2022-09-29T05:51:15;22.10;;;3.95;;
70505;SDS011;58032;49.820;6.274;2022-09-29T05:53:45;25.77;;;3.40;;
70505;SDS011;58032;49.820;6.274;2022-09-29T05:56:13;15.60;;;3.27;;
70505;SDS011;58032;49.820;6.274;2022-09-29T05:58:40;34.05;;;2.88;;
70505;SDS011;58032;49.820;6.274;2022-09-29T06:01:07;21.42;;;2.70;;
70505;SDS011;58032;49.820;6.274;2022-09-29T06:03:35;25.17;;;2.38;;
70505;SDS011;58032;49.820;6.274;2022-09-29T06:06:06;4.88;;;1.90;;
70505;SDS011;58032;49.820;6.274;2022-09-29T06:08:33;17.67;;;2.30;;
70505;SDS011;58032;49.820;6.274;2022-09-29T06:11:07;32.70;;;2.25;;
70505;SDS011;58032;49.820;6.274;2022-09-29T06:13:41;14.82;;;1.73;;
70505;SDS011;58032;49.820;6.274;2022-09-29T06:16:08;15.05;;;1.30;;
70505;SDS011;58032;49.820;6.274;2022-09-29T06:18:35;4.82;;;1.80;;
70505;SDS011;58032;49.820;6.274;2022-09-29T06:23:32;6.50;;;2.47;;
70505;SDS011;58032;49.820;6.274;2022-09-29T06:26:00;6.85;;;3.05;;
70505;SDS011;58032;49.820;6.274;2022-09-29T06:28:30;6.07;;;2.33;;
70505;SDS011;58032;49.820;6.274;2022-09-29T06:30:58;8.98;;;2.47;;
70505;SDS011;58032;49.820;6.274;2022-09-29T06:33:26;5.60;;;2.10;;
70505;SDS011;58032;49.820;6.274;2022-09-29T06:35:53;5.68;;;2.25;;
70505;SDS011;58032;49.820;6.274;2022-09-29T06:38:38;6.97;;;2.00;;
70505;SDS011;58032;49.820;6.274;2022-09-29T06:41:05;11.35;;;1.90;;
70505;SDS011;58032;49.820;6.274;2022-09-29T06:43:32;17.15;;;2.40;;
70505;SDS011;58032;49.820;6.274;2022-09-29T06:45:59;9.90;;;2.50;;
70505;SDS011;58032;49.820;6.274;2022-09-29T06:48:30;10.93;;;1.75;;
70505;SDS011;58032;49.820;6.274;2022-09-29T06:51:00;9.50;;;2.00;;
70505;SDS011;58032;49.820;6.274;2022-09-29T06:53:34;4.63;;;2.00;;
70505;SDS011;58032;49.820;6.274;2022-09-29T06:56:04;3.78;;;1.50;;
70505;SDS011;58032;49.820;6.274;2022-09-29T06:58:31;6.20;;;1.93;;
70505;SDS011;58032;49.820;6.274;2022-09-29T07:01:01;12.57;;;5.05;;
70505;SDS011;58032;49.820;6.274;2022-09-29T07:03:28;5.07;;;2.28;;
70505;SDS011;58032;49.820;6.274;2022-09-29T07:05:55;5.30;;;1.90;;
70505;SDS011;58032;49.820;6.274;2022-09-29T07:08:42;4.45;;;1.85;;
70505;SDS011;58032;49.820;6.274;2022-09-29T07:11:09;4.80;;;2.10;;
70505;SDS011;58032;49.820;6.274;2022-09-29T07:13:36;4.63;;;2.08;;
70505;SDS011;58032;49.820;6.274;2022-09-29T07:16:04;4.45;;;1.65;;
70505;SDS011;58032;49.820;6.274;2022-09-29T07:18:33;5.53;;;2.00;;
70505;SDS011;58032;49.820;6.274;2022-09-29T07:21:00;4.88;;;2.17;;
70505;SDS011;58032;49.820;6.274;2022-09-29T07:23:27;4.53;;;2.50;;
70505;SDS011;58032;49.820;6.274;2022-09-29T07:25:54;4.22;;;1.80;;
70505;SDS011;58032;49.820;6.274;2022-09-29T07:28:21;5.70;;;2.50;;
70505;SDS011;58032;49.820;6.274;2022-09-29T07:30:58;4.07;;;1.80;;
70505;SDS011;58032;49.820;6.274;2022-09-29T07:33:32;6.00;;;2.90;;
70505;SDS011;58032;49.820;6.274;2022-09-29T07:36:03;5.27;;;2.30;;
70505;SDS011;58032;49.820;6.274;2022-09-29T07:38:31;5.68;;;2.30;;
70505;SDS011;58032;49.820;6.274;2022-09-29T07:41:08;6.20;;;2.55;;
70505;SDS011;58032;49.820;6.274;2022-09-29T07:43:36;5.13;;;2.55;;
70505;SDS011;58032;49.820;6.274;2022-09-29T07:46:03;5.20;;;2.30;;
70505;SDS011;58032;49.820;6.274;2022-09-29T07:48:30;5.95;;;2.80;;
70505;SDS011;58032;49.820;6.274;2022-09-29T07:51:01;5.05;;;2.20;;
70505;SDS011;58032;49.820;6.274;2022-09-29T07:53:29;5.40;;;2.55;;
70505;SDS011;58032;49.820;6.274;2022-09-29T07:56:01;5.47;;;2.40;;
70505;SDS011;58032;49.820;6.274;2022-09-29T07:58:28;6.40;;;2.77;;
70505;SDS011;58032;49.820;6.274;2022-09-29T08:00:55;7.93;;;2.75;;
70505;SDS011;58032;49.820;6.274;2022-09-29T08:03:22;5.32;;;2.78;;
70505;SDS011;58032;49.820;6.274;2022-09-29T08:05:51;6.60;;;3.15;;
70505;SDS011;58032;49.820;6.274;2022-09-29T08:08:18;9.55;;;3.17;;
70505;SDS011;58032;49.820;6.274;2022-09-29T08:10:45;7.60;;;3.33;;
70505;SDS011;58032;49.820;6.274;2022-09-29T08:13:17;6.57;;;3.25;;
70505;SDS011;58032;49.820;6.274;2022-09-29T08:15:44;10.15;;;3.30;;
70505;SDS011;58032;49.820;6.274;2022-09-29T08:18:11;7.32;;;3.45;;
70505;SDS011;58032;49.820;6.274;2022-09-29T08:20:38;6.80;;;2.58;;
70505;SDS011;58032;49.820;6.274;2022-09-29T08:23:07;6.50;;;3.33;;
70505;SDS011;58032;49.820;6.274;2022-09-29T08:25:34;6.60;;;3.53;;
70505;SDS011;58032;49.820;6.274;2022-09-29T08:28:01;7.07;;;3.55;;
70505;SDS011;58032;49.820;6.274;2022-09-29T08:30:28;6.65;;;3.22;;
70505;SDS011;58032;49.820;6.274;2022-09-29T08:32:55;11.10;;;3.78;;
70505;SDS011;58032;49.820;6.274;2022-09-29T08:35:22;6.60;;;3.50;;
70505;SDS011;58032;49.820;6.274;2022-09-29T08:37:49;7.97;;;3.50;;
70505;SDS011;58032;49.820;6.274;2022-09-29T08:40:16;8.00;;;4.00;;
70505;SDS011;58032;49.820;6.274;2022-09-29T08:45:30;7.68;;;4.15;;
70505;SDS011;58032;49.820;6.274;2022-09-29T08:48:05;9.47;;;4.30;;
70505;SDS011;58032;49.820;6.274;2022-09-29T08:50:47;9.80;;;4.32;;
70505;SDS011;58032;49.820;6.274;2022-09-29T08:53:16;7.18;;;3.50;;
70505;SDS011;58032;49.820;6.274;2022-09-29T08:55:55;8.63;;;3.78;;
70505;SDS011;58032;49.820;6.274;2022-09-29T08:58:23;8.98;;;4.50;;
70505;SDS011;58032;49.820;6.274;2022-09-29T09:01:00;9.20;;;4.13;;
70505;SDS011;58032;49.820;6.274;2022-09-29T09:06:11;9.73;;;4.70;;
70505;SDS011;58032;49.820;6.274;2022-09-29T09:08:43;7.60;;;4.10;;
70505;SDS011;58032;49.820;6.274;2022-09-29T09:21:18;8.40;;;4.13;;
70505;SDS011;58032;49.820;6.274;2022-09-29T09:23:55;6.78;;;3.50;;
70505;SDS011;58032;49.820;6.274;2022-09-29T09:26:24;7.17;;;3.50;;
70505;SDS011;58032;49.820;6.274;2022-09-29T09:28:57;7.03;;;3.45;;
70505;SDS011;58032;49.820;6.274;2022-09-29T09:31:43;7.40;;;3.65;;
70505;SDS011;58032;49.820;6.274;2022-09-29T09:36:46;6.80;;;3.50;;
70505;SDS011;58032;49.820;6.274;2022-09-29T09:39:21;8.17;;;3.33;;
70505;SDS011;58032;49.820;6.274;2022-09-29T09:41:52;6.35;;;3.35;;
70505;SDS011;58032;49.820;6.274;2022-09-29T09:44:21;8.45;;;3.50;;
70505;SDS011;58032;49.820;6.274;2022-09-29T09:46:48;5.63;;;2.97;;
70505;SDS011;58032;49.820;6.274;2022-09-29T09:49:18;7.22;;;3.80;;
70505;SDS011;58032;49.820;6.274;2022-09-29T09:52:03;7.60;;;3.43;;
70505;SDS011;58032;49.820;6.274;2022-09-29T09:54:32;7.68;;;3.42;;
70505;SDS011;58032;49.820;6.274;2022-09-29T10:02:17;9.68;;;3.70;;
70505;SDS011;58032;49.820;6.274;2022-09-29T10:04:47;10.77;;;4.23;;
70505;SDS011;58032;49.820;6.274;2022-09-29T10:07:16;7.30;;;3.53;;
70505;SDS011;58032;49.820;6.274;2022-09-29T10:09:42;7.40;;;3.28;;
70505;SDS011;58032;49.820;6.274;2022-09-29T10:12:22;6.80;;;3.05;;
70505;SDS011;58032;49.820;6.274;2022-09-29T10:15:00;7.43;;;2.83;;
70505;SDS011;58032;49.820;6.274;2022-09-29T10:17:30;6.70;;;2.80;;
70505;SDS011;58032;49.820;6.274;2022-09-29T10:19:59;5.20;;;2.58;;
70505;SDS011;58032;49.820;6.274;2022-09-29T10:22:27;6.97;;;2.00;;
70505;SDS011;58032;49.820;6.274;2022-09-29T10:25:14;3.47;;;1.60;;
70505;SDS011;58032;49.820;6.274;2022-09-29T10:27:42;4.43;;;1.20;;
70505;SDS011;58032;49.820;6.274;2022-09-29T10:30:20;4.27;;;1.30;;
70505;SDS011;58032;49.820;6.274;2022-09-29T10:32:49;6.38;;;1.58;;
70505;SDS011;58032;49.820;6.274;2022-09-29T10:35:21;6.10;;;1.48;;
70505;SDS011;58032;49.820;6.274;2022-09-29T10:37:57;6.18;;;2.05;;
70505;SDS011;58032;49.820;6.274;2022-09-29T10:40:25;6.50;;;2.13;;
70505;SDS011;58032;49.820;6.274;2022-09-29T10:42:52;5.93;;;1.80;;
70505;SDS011;58032;49.820;6.274;2022-09-29T10:45:25;5.25;;;1.63;;
70505;SDS011;58032;49.820;6.274;2022-09-29T10:50:27;7.43;;;1.88;;
70505;SDS011;58032;49.820;6.274;2022-09-29T10:53:02;4.45;;;1.95;;
70505;SDS011;58032;49.820;6.274;2022-09-29T10:55:33;5.67;;;1.93;;
70505;SDS011;58032;49.820;6.274;2022-09-29T10:58:04;8.32;;;2.15;;
70505;SDS011;58032;49.820;6.274;2022-09-29T11:00:35;5.72;;;1.75;;
70505;SDS011;58032;49.820;6.274;2022-09-29T11:05:30;5.90;;;1.67;;
70505;SDS011;58032;49.820;6.274;2022-09-29T11:07:57;5.10;;;1.80;;
70505;SDS011;58032;49.820;6.274;2022-09-29T11:12:57;6.97;;;2.20;;
70505;SDS011;58032;49.820;6.274;2022-09-29T11:15:27;5.95;;;2.10;;
70505;SDS011;58032;49.820;6.274;2022-09-29T11:17:55;6.03;;;2.35;;
70505;SDS011;58032;49.820;6.274;2022-09-29T11:20:24;5.53;;;1.83;;
70505;SDS011;58032;49.820;6.274;2022-09-29T11:25:31;6.95;;;2.70;;
70505;SDS011;58032;49.820;6.274;2022-09-29T11:33:22;5.67;;;2.30;;
70505;SDS011;58032;49.820;6.274;2022-09-29T11:36:02;5.18;;;2.65;;
70505;SDS011;58032;49.820;6.274;2022-09-29T11:38:47;6.75;;;2.58;;
70505;SDS011;58032;49.820;6.274;2022-09-29T11:43:55;6.20;;;2.50;;
70505;SDS011;58032;49.820;6.274;2022-09-29T11:46:39;6.23;;;3.20;;
70505;SDS011;58032;49.820;6.274;2022-09-29T11:52:03;6.95;;;3.05;;
70505;SDS011;58032;49.820;6.274;2022-09-29T11:54:39;7.85;;;2.53;;
70505;SDS011;58032;49.820;6.274;2022-09-29T12:04:59;4.88;;;2.72;;
70505;SDS011;58032;49.820;6.274;2022-09-29T12:12:48;6.33;;;2.73;;
70505;SDS011;58032;49.820;6.274;2022-09-29T12:15:36;6.28;;;2.72;;
70505;SDS011;58032;49.820;6.274;2022-09-29T12:18:13;6.55;;;2.67;;
70505;SDS011;58032;49.820;6.274;2022-09-29T12:20:41;7.15;;;2.80;;
70505;SDS011;58032;49.820;6.274;2022-09-29T12:23:10;6.50;;;2.60;;
70505;SDS011;58032;49.820;6.274;2022-09-29T12:25:45;6.73;;;2.60;;
70505;SDS011;58032;49.820;6.274;2022-09-29T12:28:15;7.90;;;2.80;;
70505;SDS011;58032;49.820;6.274;2022-09-29T12:30:51;7.80;;;2.88;;
70505;SDS011;58032;49.820;6.274;2022-09-29T12:33:21;6.10;;;2.75;;
70505;SDS011;58032;49.820;6.274;2022-09-29T12:36:06;7.93;;;3.05;;
70505;SDS011;58032;49.820;6.274;2022-09-29T12:39:17;7.17;;;3.00;;
70505;SDS011;58032;49.820;6.274;2022-09-29T12:41:43;6.43;;;2.60;;
70505;SDS011;58032;49.820;6.274;2022-09-29T12:44:30;8.18;;;2.58;;
70505;SDS011;58032;49.820;6.274;2022-09-29T12:47:06;4.53;;;2.60;;
70505;SDS011;58032;49.820;6.274;2022-09-29T12:49:46;7.35;;;2.75;;
70505;SDS011;58032;49.820;6.274;2022-09-29T12:52:20;4.40;;;2.17;;
70505;SDS011;58032;49.820;6.274;2022-09-29T12:54:52;5.72;;;2.60;;
70505;SDS011;58032;49.820;6.274;2022-09-29T12:57:21;7.72;;;2.70;;
70505;SDS011;58032;49.820;6.274;2022-09-29T13:00:04;6.43;;;2.45;;
70505;SDS011;58032;49.820;6.274;2022-09-29T13:10:20;6.38;;;2.83;;
70505;SDS011;58032;49.820;6.274;2022-09-29T13:28:00;5.97;;;2.75;;
70505;SDS011;58032;49.820;6.274;2022-09-29T13:30:27;5.23;;;2.40;;
70505;SDS011;58032;49.820;6.274;2022-09-29T13:35:25;8.70;;;2.30;;
70505;SDS011;58032;49.820;6.274;2022-09-29T13:38:00;5.35;;;2.08;;
70505;SDS011;58032;49.820;6.274;2022-09-29T13:40:28;8.57;;;1.65;;
70505;SDS011;58032;49.820;6.274;2022-09-29T13:42:55;4.20;;;1.50;;
70505;SDS011;58032;49.820;6.274;2022-09-29T13:47:59;4.95;;;2.00;;
70505;SDS011;58032;49.820;6.274;2022-09-29T13:50:40;3.35;;;1.30;;
70505;SDS011;58032;49.820;6.274;2022-09-29T13:58:32;3.25;;;1.20;;
70505;SDS011;58032;49.820;6.274;2022-09-29T14:00:58;3.92;;;1.08;;
70505;SDS011;58032;49.820;6.274;2022-09-29T14:03:26;2.92;;;0.60;;
70505;SDS011;58032;49.820;6.274;2022-09-29T14:05:55;3.33;;;0.90;;
70505;SDS011;58032;49.820;6.274;2022-09-29T14:08:26;3.23;;;0.90;;
70505;SDS011;58032;49.820;6.274;2022-09-29T14:11:00;3.75;;;1.00;;
70505;SDS011;58032;49.820;6.274;2022-09-29T14:13:32;7.00;;;1.17;;
70505;SDS011;58032;49.820;6.274;2022-09-29T14:18:57;3.40;;;0.70;;
70505;SDS011;58032;49.820;6.274;2022-09-29T14:21:47;3.93;;;0.70;;
70505;SDS011;58032;49.820;6.274;2022-09-29T14:27:19;3.88;;;0.90;;
70505;SDS011;58032;49.820;6.274;2022-09-29T14:29:48;3.22;;;1.05;;
70505;SDS011;58032;49.820;6.274;2022-09-29T14:32:19;2.40;;;0.77;;
70505;SDS011;58032;49.820;6.274;2022-09-29T14:34:49;3.60;;;0.97;;
70505;SDS011;58032;49.820;6.274;2022-09-29T14:40:54;2.83;;;1.10;;
70505;SDS011;58032;49.820;6.274;2022-09-29T14:43:57;3.00;;;1.00;;
70505;SDS011;58032;49.820;6.274;2022-09-29T14:52:05;3.90;;;0.80;;
70505;SDS011;58032;49.820;6.274;2022-09-29T14:54:41;2.53;;;0.80;;
70505;SDS011;58032;49.820;6.274;2022-09-29T15:02:26;4.63;;;0.87;;
70505;SDS011;58032;49.820;6.274;2022-09-29T15:04:54;3.03;;;0.90;;
70505;SDS011;58032;49.820;6.274;2022-09-29T15:07:23;2.78;;;0.60;;
70505;SDS011;58032;49.820;6.274;2022-09-29T15:09:54;3.03;;;0.60;;
70505;SDS011;58032;49.820;6.274;2022-09-29T15:12:22;2.20;;;0.70;;
70505;SDS011;58032;49.820;6.274;2022-09-29T15:14:49;3.83;;;0.70;;
70505;SDS011;58032;49.820;6.274;2022-09-29T15:19:51;3.35;;;0.60;;
70505;SDS011;58032;49.820;6.274;2022-09-29T15:25:37;3.28;;;0.80;;
70505;SDS011;58032;49.820;6.274;2022-09-29T15:30:53;2.10;;;0.50;;
70505;SDS011;58032;49.820;6.274;2022-09-29T15:33:36;5.82;;;0.70;;
70505;SDS011;58032;49.820;6.274;2022-09-29T15:36:34;4.47;;;0.70;;
70505;SDS011;58032;49.820;6.274;2022-09-29T15:39:06;4.22;;;1.08;;
70505;SDS011;58032;49.820;6.274;2022-09-29T15:41:35;2.90;;;0.70;;
70505;SDS011;58032;49.820;6.274;2022-09-29T15:44:14;4.10;;;0.75;;
70505;SDS011;58032;49.820;6.274;2022-09-29T15:46:56;6.55;;;1.52;;
70505;SDS011;58032;49.820;6.274;2022-09-29T15:49:26;6.30;;;1.77;;
70505;SDS011;58032;49.820;6.274;2022-09-29T15:51:55;3.53;;;1.45;;
70505;SDS011;58032;49.820;6.274;2022-09-29T15:54:23;4.17;;;1.20;;
70505;SDS011;58032;49.820;6.274;2022-09-29T15:56:50;5.03;;;1.02;;
70505;SDS011;58032;49.820;6.274;2022-09-29T16:02:19;6.15;;;1.30;;
70505;SDS011;58032;49.820;6.274;2022-09-29T16:04:57;3.75;;;1.42;;
70505;SDS011;58032;49.820;6.274;2022-09-29T16:07:49;3.13;;;0.90;;
70505;SDS011;58032;49.820;6.274;2022-09-29T16:10:20;6.50;;;1.65;;
70505;SDS011;58032;49.820;6.274;2022-09-29T16:12:54;3.40;;;1.25;;
70505;SDS011;58032;49.820;6.274;2022-09-29T16:17:48;4.25;;;1.10;;
70505;SDS011;58032;49.820;6.274;2022-09-29T16:20:18;3.73;;;1.00;;
70505;SDS011;58032;49.820;6.274;2022-09-29T16:22:47;2.65;;;0.95;;
70505;SDS011;58032;49.820;6.274;2022-09-29T16:27:51;3.08;;;1.10;;
70505;SDS011;58032;49.820;6.274;2022-09-29T16:32:50;2.73;;;0.97;;
70505;SDS011;58032;49.820;6.274;2022-09-29T16:40:44;2.30;;;1.00;;
70505;SDS011;58032;49.820;6.274;2022-09-29T16:43:24;3.63;;;1.05;;
70505;SDS011;58032;49.820;6.274;2022-09-29T16:45:53;3.90;;;1.10;;
70505;SDS011;58032;49.820;6.274;2022-09-29T16:48:22;3.67;;;1.20;;
70505;SDS011;58032;49.820;6.274;2022-09-29T16:50:51;4.25;;;1.17;;
70505;SDS011;58032;49.820;6.274;2022-09-29T16:53:22;5.10;;;1.10;;
70505;SDS011;58032;49.820;6.274;2022-09-29T16:56:08;2.80;;;1.00;;
70505;SDS011;58032;49.820;6.274;2022-09-29T16:58:35;4.30;;;1.00;;
70505;SDS011;58032;49.820;6.274;2022-09-29T17:01:02;4.00;;;1.13;;
70505;SDS011;58032;49.820;6.274;2022-09-29T17:03:29;3.17;;;1.02;;
70505;SDS011;58032;49.820;6.274;2022-09-29T17:05:56;3.00;;;0.93;;
70505;SDS011;58032;49.820;6.274;2022-09-29T17:08:25;2.88;;;0.85;;
70505;SDS011;58032;49.820;6.274;2022-09-29T17:10:54;3.90;;;0.70;;
70505;SDS011;58032;49.820;6.274;2022-09-29T17:13:21;2.88;;;0.90;;
70505;SDS011;58032;49.820;6.274;2022-09-29T17:15:50;5.90;;;1.10;;
70505;SDS011;58032;49.820;6.274;2022-09-29T17:18:18;1.95;;;0.50;;
70505;SDS011;58032;49.820;6.274;2022-09-29T17:20:45;2.97;;;0.68;;
70505;SDS011;58032;49.820;6.274;2022-09-29T17:23:12;3.67;;;0.80;;
70505;SDS011;58032;49.820;6.274;2022-09-29T17:25:39;7.13;;;1.67;;
70505;SDS011;58032;49.820;6.274;2022-09-29T17:28:13;3.88;;;1.40;;
70505;SDS011;58032;49.820;6.274;2022-09-29T17:30:42;4.80;;;1.73;;
70505;SDS011;58032;49.820;6.274;2022-09-29T17:33:10;3.38;;;1.13;;
70505;SDS011;58032;49.820;6.274;2022-09-29T17:35:39;2.67;;;0.80;;
70505;SDS011;58032;49.820;6.274;2022-09-29T17:38:06;6.38;;;1.73;;
70505;SDS011;58032;49.820;6.274;2022-09-29T17:43:20;8.27;;;1.20;;
70505;SDS011;58032;49.820;6.274;2022-09-29T17:45:49;3.63;;;0.93;;
70505;SDS011;58032;49.820;6.274;2022-09-29T17:48:16;3.73;;;0.80;;
70505;SDS011;58032;49.820;6.274;2022-09-29T17:50:49;4.00;;;0.75;;
70505;SDS011;58032;49.820;6.274;2022-09-29T17:53:16;3.40;;;0.70;;
70505;SDS011;58032;49.820;6.274;2022-09-29T17:55:45;2.28;;;0.70;;